Time;durP1;ratioP1;P1;durP2;ratioP2;P2;SDS_P1;SDS_P2;PMS_P1;PMS_P2;Temp;Humidity;BMP_temperature;BMP_pressure;BME280_temperature;BME280_humidity;BME280_pressure;Samples;Min_cycle;Max_cycle;Signal;HPM_P1;HPM_P2
2023/12/01 00:00:45;;;;;;;15.20;10.80;;;-1.30;99.90;;;;;;5050884;28;20514;-65
2023/12/01 00:03:13;;;;;;;16.27;11.20;;;-1.40;99.90;;;;;;5048429;28;20556;-66
2023/12/01 00:05:41;;;;;;;16.60;11.40;;;-1.40;99.90;;;;;;5033416;28;21843;-63
2023/12/01 00:08:09;;;;;;;16.10;11.43;;;-1.40;99.90;;;;;;5042399;28;20577;-65
2023/12/01 00:10:38;;;;;;;15.20;10.30;;;-1.40;99.90;;;;;;5060419;28;20504;-62
2023/12/01 00:13:06;;;;;;;14.37;10.67;;;-1.40;99.90;;;;;;5047154;28;20497;-62
2023/12/01 00:15:34;;;;;;;14.40;10.27;;;-1.40;99.90;;;;;;5046324;28;20481;-62
2023/12/01 00:18:02;;;;;;;15.07;10.90;;;-1.40;99.90;;;;;;5048249;28;20491;-62
2023/12/01 00:20:31;;;;;;;14.17;10.87;;;-1.40;99.90;;;;;;5037710;28;20558;-63
2023/12/01 00:22:59;;;;;;;13.97;10.63;;;-1.50;99.90;;;;;;5048426;28;20470;-62
2023/12/01 00:25:27;;;;;;;14.87;10.67;;;-1.50;99.90;;;;;;5043662;28;20502;-62
2023/12/01 00:27:58;;;;;;;16.03;11.20;;;-1.50;99.90;;;;;;5049541;28;20498;-63
2023/12/01 00:30:28;;;;;;;14.57;10.07;;;-1.50;99.90;;;;;;5034164;28;20555;-61
2023/12/01 00:32:59;;;;;;;18.97;11.50;;;-1.50;99.90;;;;;;5046014;28;20850;-62
2023/12/01 00:35:27;;;;;;;16.40;11.23;;;-1.60;99.90;;;;;;5042602;28;20462;-65
2023/12/01 00:37:55;;;;;;;17.40;11.33;;;-1.50;99.90;;;;;;5034052;28;20586;-65
2023/12/01 00:40:23;;;;;;;15.43;10.90;;;-1.60;99.90;;;;;;5037079;28;20489;-65
2023/12/01 00:42:51;;;;;;;16.00;12.00;;;-1.60;99.90;;;;;;5044589;28;20631;-68
2023/12/01 00:45:20;;;;;;;14.43;10.63;;;-1.60;99.90;;;;;;5044542;28;20469;-65
2023/12/01 00:47:48;;;;;;;14.53;10.93;;;-1.60;99.90;;;;;;5041234;28;20919;-67
2023/12/01 00:50:16;;;;;;;16.00;11.00;;;-1.60;99.90;;;;;;5038609;28;20539;-65
2023/12/01 00:52:45;;;;;;;16.53;11.87;;;-1.70;99.90;;;;;;5043747;28;20979;-65
2023/12/01 00:55:13;;;;;;;17.80;12.80;;;-1.70;99.90;;;;;;5041555;28;20562;-65
2023/12/01 00:57:41;;;;;;;15.50;10.73;;;-1.70;99.90;;;;;;5042733;28;20509;-65
2023/12/01 01:00:10;;;;;;;16.90;11.30;;;-1.80;99.90;;;;;;5044337;28;20474;-66
2023/12/01 01:02:40;;;;;;;16.50;11.00;;;-1.80;99.90;;;;;;5042488;28;20498;-65
2023/12/01 01:05:09;;;;;;;17.53;11.33;;;-1.90;99.90;;;;;;5040979;28;20470;-65
2023/12/01 01:07:36;;;;;;;14.10;10.63;;;-1.90;99.90;;;;;;5046031;28;20504;-65
2023/12/01 01:10:05;;;;;;;17.17;11.67;;;-2.00;99.90;;;;;;5042976;28;20498;-65
2023/12/01 01:12:33;;;;;;;15.67;11.47;;;-2.00;99.90;;;;;;5034840;28;20963;-67
2023/12/01 01:15:02;;;;;;;17.10;11.33;;;-2.00;99.90;;;;;;5041070;28;20516;-67
2023/12/01 01:17:31;;;;;;;17.93;11.00;;;-2.10;99.90;;;;;;5048571;28;21002;-68
2023/12/01 01:20:02;;;;;;;14.87;10.67;;;-2.10;99.90;;;;;;5047154;28;20541;-69
2023/12/01 01:22:30;;;;;;;15.70;10.83;;;-2.10;99.90;;;;;;5038188;28;20999;-67
2023/12/01 01:24:58;;;;;;;16.20;10.80;;;-2.20;99.90;;;;;;5040519;28;20566;-68
2023/12/01 01:27:26;;;;;;;17.20;11.60;;;-2.20;99.90;;;;;;5039637;28;20893;-65
2023/12/01 01:29:54;;;;;;;15.50;10.63;;;-2.20;99.90;;;;;;5043318;28;20552;-65
2023/12/01 01:32:22;;;;;;;14.80;11.00;;;-2.30;99.90;;;;;;5043838;28;20475;-65
2023/12/01 01:34:50;;;;;;;17.60;11.27;;;-2.30;99.90;;;;;;5042950;28;20562;-65
2023/12/01 01:37:19;;;;;;;14.33;10.30;;;-2.30;99.90;;;;;;5038650;28;20486;-64
2023/12/01 01:39:47;;;;;;;16.63;12.00;;;-2.40;99.90;;;;;;5041047;28;20547;-65
2023/12/01 01:42:15;;;;;;;15.17;11.10;;;-2.40;99.90;;;;;;5042060;28;21043;-65
2023/12/01 01:44:43;;;;;;;17.63;11.10;;;-2.40;99.90;;;;;;5043364;28;20459;-65
2023/12/01 01:47:12;;;;;;;16.70;12.30;;;-2.40;99.90;;;;;;5042625;28;20577;-64
2023/12/01 01:49:40;;;;;;;16.40;11.27;;;-2.50;99.90;;;;;;5042950;28;20908;-65
2023/12/01 01:52:08;;;;;;;16.17;10.80;;;-2.50;99.90;;;;;;5048834;28;20993;-65
2023/12/01 01:54:40;;;;;;;13.80;9.40;;;-2.50;99.90;;;;;;5037058;28;20975;-65
2023/12/01 01:57:09;;;;;;;15.87;10.40;;;-2.60;99.90;;;;;;5038452;28;20541;-65
2023/12/01 01:59:37;;;;;;;16.50;11.20;;;-2.60;99.90;;;;;;5045759;28;20506;-62
2023/12/01 02:02:05;;;;;;;15.63;11.00;;;-2.60;99.90;;;;;;5042737;28;20584;-62
2023/12/01 02:04:33;;;;;;;17.57;11.90;;;-2.60;99.90;;;;;;5046836;28;20467;-62
2023/12/01 02:07:02;;;;;;;17.27;11.57;;;-2.70;99.90;;;;;;5046923;28;20498;-62
2023/12/01 02:09:33;;;;;;;14.40;10.47;;;-2.70;99.90;;;;;;5047150;28;20478;-62
2023/12/01 02:12:03;;;;;;;15.73;11.37;;;-2.70;99.90;;;;;;5049407;28;20463;-62
2023/12/01 02:14:31;;;;;;;18.90;11.13;;;-2.80;99.90;;;;;;5040346;28;20462;-63
2023/12/01 02:16:59;;;;;;;16.57;11.13;;;-2.80;99.90;;;;;;5046806;28;20553;-63
2023/12/01 02:19:27;;;;;;;17.60;11.50;;;-2.80;99.90;;;;;;5044085;28;20477;-62
2023/12/01 02:21:56;;;;;;;16.40;11.60;;;-2.80;99.90;;;;;;5046417;28;20473;-63
2023/12/01 02:24:24;;;;;;;16.33;11.47;;;-2.80;99.90;;;;;;5045906;28;20975;-61
2023/12/01 02:26:52;;;;;;;18.00;11.40;;;-2.90;99.90;;;;;;5043991;28;20483;-63
2023/12/01 02:29:20;;;;;;;18.10;11.53;;;-2.90;99.90;;;;;;5045127;28;20475;-63
2023/12/01 02:31:48;;;;;;;17.70;10.93;;;-2.90;99.90;;;;;;5048124;28;20549;-64
2023/12/01 02:34:21;;;;;;;15.97;11.17;;;-3.00;99.90;;;;;;5048917;28;20477;-62
2023/12/01 02:36:49;;;;;;;13.33;9.80;;;-3.00;99.90;;;;;;5040184;28;21291;-63
2023/12/01 02:39:18;;;;;;;15.70;11.63;;;-3.00;99.90;;;;;;5046684;28;20525;-63
2023/12/01 02:41:46;;;;;;;18.47;12.17;;;-3.00;99.90;;;;;;5047371;28;20466;-62
2023/12/01 02:44:14;;;;;;;14.73;10.37;;;-3.00;99.90;;;;;;5042272;28;20469;-62
2023/12/01 02:46:42;;;;;;;18.03;11.17;;;-3.10;99.90;;;;;;5042780;28;20470;-62
2023/12/01 02:49:10;;;;;;;17.27;11.40;;;-3.10;99.90;;;;;;5044230;28;20505;-63
2023/12/01 02:51:38;;;;;;;14.33;10.50;;;-3.10;99.90;;;;;;5041934;28;20470;-61
2023/12/01 02:54:06;;;;;;;16.57;11.13;;;-3.10;99.90;;;;;;5045071;28;20530;-63
2023/12/01 02:56:35;;;;;;;16.27;10.93;;;-3.10;99.90;;;;;;5036852;28;20505;-63
2023/12/01 02:59:03;;;;;;;16.93;10.83;;;-3.10;99.90;;;;;;5041358;28;20530;-62
2023/12/01 03:01:31;;;;;;;16.13;10.90;;;-3.10;99.90;;;;;;5043616;28;20524;-63
2023/12/01 03:04:00;;;;;;;18.20;11.27;;;-3.10;99.90;;;;;;5039692;28;20470;-61
2023/12/01 03:06:28;;;;;;;18.17;11.73;;;-3.10;99.90;;;;;;5044837;28;20474;-62
2023/12/01 03:08:56;;;;;;;17.17;11.90;;;-3.00;99.90;;;;;;5039883;28;20568;-62
2023/12/01 03:11:25;;;;;;;18.47;12.20;;;-3.00;99.90;;;;;;5045263;28;20560;-62
2023/12/01 03:13:54;;;;;;;18.50;11.97;;;-3.00;99.90;;;;;;5056143;28;20467;-63
2023/12/01 03:16:22;;;;;;;21.77;12.20;;;-3.00;99.90;;;;;;5047292;28;20463;-62
2023/12/01 03:18:50;;;;;;;19.40;12.37;;;-3.00;99.90;;;;;;5057719;28;20497;-62
2023/12/01 03:21:18;;;;;;;18.50;11.60;;;-3.00;99.90;;;;;;5059855;28;20471;-62
2023/12/01 03:23:48;;;;;;;18.33;12.70;;;-3.00;99.90;;;;;;5062252;28;20497;-61
2023/12/01 03:26:18;;;;;;;17.00;12.23;;;-3.00;99.90;;;;;;5048320;28;20489;-63
2023/12/01 03:28:46;;;;;;;18.00;12.73;;;-3.00;99.90;;;;;;5053265;28;20490;-63
2023/12/01 03:31:16;;;;;;;20.57;13.13;;;-3.00;99.90;;;;;;5051437;28;20740;-63
2023/12/01 03:33:44;;;;;;;18.83;12.60;;;-2.90;99.90;;;;;;5046437;28;20462;-62
2023/12/01 03:36:12;;;;;;;17.87;12.60;;;-2.90;99.90;;;;;;5038441;28;20466;-63
2023/12/01 03:38:40;;;;;;;19.90;13.33;;;-2.90;99.90;;;;;;5045262;28;20486;-63
2023/12/01 03:41:08;;;;;;;21.80;14.20;;;-2.90;99.90;;;;;;5047107;28;20471;-62
2023/12/01 03:43:36;;;;;;;24.10;14.70;;;-2.90;99.90;;;;;;5043347;28;20584;-63
2023/12/01 03:46:05;;;;;;;19.90;13.20;;;-2.90;99.90;;;;;;5044141;28;20549;-62
2023/12/01 03:48:35;;;;;;;18.17;13.07;;;-2.90;99.90;;;;;;5049164;28;21037;-63
2023/12/01 03:51:04;;;;;;;18.63;13.17;;;-2.90;99.90;;;;;;5046132;28;20474;-62
2023/12/01 03:53:32;;;;;;;20.60;12.97;;;-2.90;99.90;;;;;;5043359;28;20517;-63
2023/12/01 03:56:04;;;;;;;21.17;13.00;;;-2.90;99.90;;;;;;5046578;28;20548;-63
2023/12/01 03:58:33;;;;;;;20.13;13.40;;;-2.80;99.90;;;;;;5043146;28;20570;-63
2023/12/01 04:01:05;;;;;;;19.37;13.10;;;-2.80;99.90;;;;;;5038119;28;20988;-63
2023/12/01 04:03:34;;;;;;;19.07;12.63;;;-2.80;99.90;;;;;;5046315;28;20502;-62
2023/12/01 04:06:02;;;;;;;19.90;12.70;;;-2.90;99.90;;;;;;5045524;28;20470;-63
2023/12/01 04:08:31;;;;;;;19.07;12.60;;;-2.90;99.90;;;;;;5045138;28;20589;-63
2023/12/01 04:10:59;;;;;;;22.37;12.53;;;-2.90;99.90;;;;;;5045977;28;20768;-63
2023/12/01 04:13:27;;;;;;;22.70;13.20;;;-2.90;99.90;;;;;;5045945;28;20891;-63
2023/12/01 04:15:55;;;;;;;21.87;13.63;;;-2.80;99.90;;;;;;5040936;28;20897;-63
2023/12/01 04:18:23;;;;;;;22.70;13.67;;;-2.80;99.90;;;;;;5041237;28;21041;-63
2023/12/01 04:20:53;;;;;;;18.03;12.43;;;-2.80;99.90;;;;;;5047613;28;20516;-62
2023/12/01 04:23:21;;;;;;;19.83;13.23;;;-2.80;99.90;;;;;;5045374;28;20899;-63
2023/12/01 04:25:49;;;;;;;20.07;13.77;;;-2.80;99.90;;;;;;5043610;28;20565;-62
2023/12/01 04:28:17;;;;;;;22.00;15.83;;;-2.90;99.90;;;;;;5047547;28;20945;-62
2023/12/01 04:30:45;;;;;;;23.17;14.07;;;-2.90;99.90;;;;;;5046552;28;20493;-63
2023/12/01 04:33:14;;;;;;;23.90;14.40;;;-2.90;99.90;;;;;;5042727;28;20494;-62
2023/12/01 04:35:42;;;;;;;21.20;13.23;;;-2.80;99.90;;;;;;5043880;28;20513;-63
2023/12/01 04:38:11;;;;;;;19.90;13.83;;;-2.80;99.90;;;;;;5045171;28;20482;-62
2023/12/01 04:40:40;;;;;;;20.30;13.20;;;-2.80;99.90;;;;;;5043793;28;20470;-62
2023/12/01 04:43:07;;;;;;;19.10;13.77;;;-2.80;99.90;;;;;;5042860;28;20555;-63
2023/12/01 04:45:36;;;;;;;23.90;15.53;;;-2.80;99.90;;;;;;5043577;28;20553;-63
2023/12/01 04:48:07;;;;;;;22.93;14.03;;;-2.80;99.90;;;;;;5040317;28;20504;-63
2023/12/01 04:50:40;;;;;;;20.47;13.30;;;-2.80;99.90;;;;;;5044743;28;20517;-63
2023/12/01 04:53:08;;;;;;;23.03;14.07;;;-2.70;99.90;;;;;;5046623;28;20497;-63
2023/12/01 04:55:38;;;;;;;20.47;13.93;;;-2.70;99.90;;;;;;5059079;28;20463;-60
2023/12/01 04:58:06;;;;;;;24.00;16.03;;;-2.70;99.90;;;;;;5065423;28;20478;-62
2023/12/01 05:00:34;;;;;;;21.97;14.80;;;-2.70;99.90;;;;;;5048475;28;21155;-62
2023/12/01 05:03:05;;;;;;;20.40;14.13;;;-2.70;99.90;;;;;;5049631;28;20503;-61
2023/12/01 05:05:35;;;;;;;22.53;13.80;;;-2.70;99.90;;;;;;5042123;28;20905;-63
2023/12/01 05:08:05;;;;;;;22.87;15.00;;;-2.70;99.90;;;;;;5044756;28;20839;-63
2023/12/01 05:10:35;;;;;;;24.43;15.83;;;-2.70;99.90;;;;;;5043412;28;20471;-63
2023/12/01 05:13:05;;;;;;;22.30;14.73;;;-2.70;99.90;;;;;;5045998;28;20570;-63
2023/12/01 05:15:35;;;;;;;19.83;14.10;;;-2.70;99.90;;;;;;5045423;28;20555;-62
2023/12/01 05:18:05;;;;;;;20.13;15.20;;;-2.70;99.90;;;;;;5038682;28;21047;-63
2023/12/01 05:20:34;;;;;;;22.43;14.40;;;-2.70;99.90;;;;;;5043142;28;20780;-63
2023/12/01 05:23:05;;;;;;;22.07;14.80;;;-2.70;99.90;;;;;;5042466;28;20479;-63
2023/12/01 05:25:33;;;;;;;23.90;14.27;;;-2.80;99.90;;;;;;5045852;28;20869;-63
2023/12/01 05:28:04;;;;;;;23.17;15.03;;;-2.80;99.90;;;;;;5044095;28;20495;-63
2023/12/01 05:30:34;;;;;;;23.03;15.40;;;-2.80;99.90;;;;;;5038215;28;20557;-62
2023/12/01 05:33:04;;;;;;;23.60;14.60;;;-2.80;99.90;;;;;;5047978;28;20502;-62
2023/12/01 05:35:35;;;;;;;24.00;14.97;;;-2.80;99.90;;;;;;5042825;28;20553;-65
2023/12/01 05:38:04;;;;;;;22.00;14.93;;;-2.80;99.90;;;;;;5045807;28;20581;-65
2023/12/01 05:40:34;;;;;;;21.00;13.27;;;-2.80;99.90;;;;;;5043922;28;20470;-64
2023/12/01 05:43:02;;;;;;;22.33;14.70;;;-2.80;99.90;;;;;;5044669;28;20563;-63
2023/12/01 05:45:33;;;;;;;20.77;13.73;;;-2.80;99.90;;;;;;5030286;28;20477;-62
2023/12/01 05:48:02;;;;;;;22.10;13.70;;;-2.90;99.90;;;;;;5046568;28;20490;-63
2023/12/01 05:50:32;;;;;;;22.70;13.90;;;-2.80;99.90;;;;;;5044232;28;20576;-61
2023/12/01 05:53:01;;;;;;;19.60;13.30;;;-2.80;99.90;;;;;;5039289;28;20469;-63
2023/12/01 05:55:33;;;;;;;23.60;13.03;;;-2.80;99.90;;;;;;5049297;28;20470;-63
2023/12/01 05:58:04;;;;;;;22.40;13.13;;;-2.80;99.90;;;;;;5037571;28;21007;-63
2023/12/01 06:00:34;;;;;;;24.83;14.93;;;-2.80;99.90;;;;;;5045365;28;20467;-62
2023/12/01 06:03:06;;;;;;;25.37;15.10;;;-2.80;99.90;;;;;;5034514;28;20498;-63
2023/12/01 06:05:35;;;;;;;22.40;15.20;;;-2.70;99.90;;;;;;5032569;28;20939;-63
2023/12/01 06:08:04;;;;;;;23.93;14.50;;;-2.80;99.90;;;;;;5027404;28;21092;-62
2023/12/01 06:10:32;;;;;;;26.27;14.67;;;-2.80;99.90;;;;;;5047827;28;20783;-62
2023/12/01 06:13:01;;;;;;;21.80;13.40;;;-2.80;99.90;;;;;;5045606;28;20585;-61
2023/12/01 06:15:30;;;;;;;27.83;14.83;;;-2.80;99.90;;;;;;5044222;28;20494;-63
2023/12/01 06:18:01;;;;;;;21.10;13.67;;;-2.80;99.90;;;;;;5048270;28;20497;-61
2023/12/01 06:20:30;;;;;;;19.33;12.50;;;-2.80;99.90;;;;;;5049283;28;21940;-64
2023/12/01 06:23:01;;;;;;;22.03;13.27;;;-2.80;99.90;;;;;;5042846;28;20479;-63
2023/12/01 06:25:31;;;;;;;24.43;14.40;;;-2.80;99.90;;;;;;5033865;28;21012;-63
2023/12/01 06:28:01;;;;;;;19.87;12.80;;;-2.80;99.90;;;;;;5048670;28;20522;-64
2023/12/01 06:30:33;;;;;;;20.70;13.50;;;-2.80;99.90;;;;;;5040695;28;20629;-63
2023/12/01 06:33:04;;;;;;;22.47;13.00;;;-2.80;99.90;;;;;;5044517;28;20476;-66
2023/12/01 06:35:32;;;;;;;21.13;13.23;;;-2.80;99.90;;;;;;5042367;28;21024;-63
2023/12/01 06:38:00;;;;;;;20.67;13.10;;;-2.80;99.90;;;;;;5040329;28;20838;-63
2023/12/01 06:40:33;;;;;;;22.50;13.20;;;-2.80;99.90;;;;;;5044205;28;20463;-64
2023/12/01 06:43:02;;;;;;;25.83;14.60;;;-2.80;99.90;;;;;;5040737;28;20477;-63
2023/12/01 06:45:30;;;;;;;25.97;14.63;;;-2.70;99.90;;;;;;5039276;28;20552;-63
2023/12/01 06:48:00;;;;;;;21.37;13.13;;;-2.70;99.90;;;;;;5044479;28;20520;-63
2023/12/01 06:50:31;;;;;;;23.07;14.73;;;-2.70;99.90;;;;;;5040562;28;20495;-63
2023/12/01 06:53:00;;;;;;;21.70;13.40;;;-2.70;99.90;;;;;;5040773;28;20939;-62
2023/12/01 06:55:28;;;;;;;23.87;13.63;;;-2.70;99.90;;;;;;5036400;28;20470;-63
2023/12/01 06:57:57;;;;;;;23.53;14.53;;;-2.70;99.90;;;;;;5044045;28;20505;-63
2023/12/01 07:00:30;;;;;;;23.17;14.77;;;-2.70;99.90;;;;;;5045253;28;20463;-63
2023/12/01 07:03:00;;;;;;;21.00;13.03;;;-2.70;99.90;;;;;;5048160;28;20478;-63
2023/12/01 07:05:31;;;;;;;26.07;14.87;;;-2.80;99.90;;;;;;5041090;28;20478;-63
2023/12/01 07:08:00;;;;;;;22.80;14.27;;;-2.80;99.90;;;;;;5039683;28;20494;-63
2023/12/01 07:10:29;;;;;;;26.93;14.30;;;-2.80;99.90;;;;;;5045601;28;20493;-63
2023/12/01 07:12:57;;;;;;;26.80;14.43;;;-2.70;99.90;;;;;;5041992;28;20924;-64
2023/12/01 07:15:25;;;;;;;23.07;13.73;;;-2.70;99.90;;;;;;5041789;28;20490;-63
2023/12/01 07:17:54;;;;;;;20.67;13.10;;;-2.80;99.90;;;;;;5046418;28;20548;-63
2023/12/01 07:20:24;;;;;;;20.87;13.00;;;-2.80;99.90;;;;;;5042016;28;21107;-64
2023/12/01 07:22:54;;;;;;;24.73;15.10;;;-2.90;99.90;;;;;;5042644;28;20470;-64
2023/12/01 07:25:23;;;;;;;23.13;14.63;;;-3.00;99.90;;;;;;5039836;28;20563;-64
2023/12/01 07:27:56;;;;;;;24.10;14.10;;;-3.00;99.90;;;;;;5043152;28;20572;-64
2023/12/01 07:30:24;;;;;;;22.80;14.80;;;-3.00;99.90;;;;;;5038607;28;20502;-64
2023/12/01 07:32:53;;;;;;;19.97;13.47;;;-3.00;99.90;;;;;;5045525;28;20559;-64
2023/12/01 07:35:21;;;;;;;27.07;15.40;;;-3.00;99.90;;;;;;5046644;28;20476;-63
2023/12/01 07:37:52;;;;;;;25.97;15.67;;;-3.00;99.90;;;;;;5040611;28;20592;-63
2023/12/01 07:40:23;;;;;;;22.87;13.70;;;-3.00;99.90;;;;;;5040038;28;20465;-64
2023/12/01 07:42:55;;;;;;;24.60;14.70;;;-3.00;99.90;;;;;;5035974;28;20479;-64
2023/12/01 07:45:24;;;;;;;26.17;15.90;;;-3.00;99.90;;;;;;5047661;28;20540;-63
2023/12/01 07:47:54;;;;;;;26.00;15.20;;;-3.00;99.90;;;;;;5042616;28;20501;-64
2023/12/01 07:50:25;;;;;;;21.80;13.83;;;-3.00;99.90;;;;;;5041453;28;20823;-64
2023/12/01 07:52:55;;;;;;;22.50;14.30;;;-3.00;99.90;;;;;;5044891;28;21037;-64
2023/12/01 07:55:25;;;;;;;24.40;13.60;;;-3.00;99.90;;;;;;5045830;28;20532;-63
2023/12/01 07:57:53;;;;;;;25.17;14.50;;;-2.90;99.90;;;;;;5041047;28;20487;-63
2023/12/01 08:00:21;;;;;;;24.60;13.70;;;-2.90;99.90;;;;;;5041375;28;20470;-63
2023/12/01 08:02:53;;;;;;;22.93;14.10;;;-2.90;99.90;;;;;;5040965;28;20844;-63
2023/12/01 08:05:23;;;;;;;27.37;15.17;;;-2.90;99.90;;;;;;5042241;28;20494;-64
2023/12/01 08:07:53;;;;;;;24.43;15.27;;;-2.90;99.90;;;;;;5045943;28;20536;-64
2023/12/01 08:10:28;;;;;;;25.97;14.77;;;-2.90;99.90;;;;;;5039587;28;20497;-63
2023/12/01 08:12:59;;;;;;;22.97;14.63;;;-2.90;99.90;;;;;;5041074;28;20469;-64
2023/12/01 08:15:28;;;;;;;23.30;14.47;;;-2.90;99.90;;;;;;5048326;28;20459;-63
2023/12/01 08:17:59;;;;;;;28.40;15.67;;;-2.90;99.90;;;;;;5042246;28;20731;-63
2023/12/01 08:20:29;;;;;;;25.77;14.30;;;-2.80;99.90;;;;;;5035240;28;20463;-64
2023/12/01 08:22:58;;;;;;;24.00;14.47;;;-2.80;99.90;;;;;;5048056;28;20466;-63
2023/12/01 08:25:28;;;;;;;25.97;15.40;;;-2.80;99.90;;;;;;5042026;28;20467;-63
2023/12/01 08:27:55;;;;;;;27.67;16.00;;;-2.80;99.90;;;;;;5042905;28;20573;-64
2023/12/01 08:30:24;;;;;;;25.00;15.70;;;-2.70;99.90;;;;;;5044176;28;20573;-64
2023/12/01 08:32:55;;;;;;;26.23;16.60;;;-2.70;99.90;;;;;;5042670;28;20505;-63
2023/12/01 08:35:24;;;;;;;25.10;14.70;;;-2.70;99.90;;;;;;5044222;28;20458;-63
2023/12/01 08:37:53;;;;;;;25.90;15.80;;;-2.70;99.90;;;;;;5044390;28;20529;-63
2023/12/01 08:40:21;;;;;;;23.10;14.33;;;-2.60;99.90;;;;;;5047312;28;20474;-63
2023/12/01 08:42:53;;;;;;;22.07;14.00;;;-2.50;99.90;;;;;;5048290;28;20465;-64
2023/12/01 08:45:21;;;;;;;21.57;15.43;;;-2.50;99.90;;;;;;5034984;28;20549;-61
2023/12/01 08:47:51;;;;;;;24.60;15.00;;;-2.50;99.90;;;;;;5042641;28;20492;-64
2023/12/01 08:50:19;;;;;;;23.10;14.60;;;-2.50;99.90;;;;;;5047685;28;20493;-63
2023/12/01 08:52:47;;;;;;;23.10;15.07;;;-2.50;99.90;;;;;;5046916;28;20576;-62
2023/12/01 08:55:16;;;;;;;24.60;14.80;;;-2.40;99.90;;;;;;5043337;28;20471;-64
2023/12/01 08:57:44;;;;;;;25.67;15.40;;;-2.40;99.90;;;;;;5047556;28;20490;-63
2023/12/01 09:00:20;;;;;;;24.83;15.43;;;-2.40;99.90;;;;;;5045295;28;20495;-64
2023/12/01 09:02:50;;;;;;;25.23;15.10;;;-2.40;99.90;;;;;;5046916;28;20471;-63
2023/12/01 09:05:18;;;;;;;24.80;14.43;;;-2.40;99.90;;;;;;5043089;28;20489;-64
2023/12/01 09:07:48;;;;;;;25.83;15.47;;;-2.30;99.90;;;;;;5041149;28;20486;-63
2023/12/01 09:10:16;;;;;;;30.70;17.30;;;-2.30;99.90;;;;;;5046078;28;20505;-63
2023/12/01 09:12:45;;;;;;;23.20;14.47;;;-2.30;99.90;;;;;;5046608;28;20820;-63
2023/12/01 09:15:15;;;;;;;26.23;16.17;;;-2.20;99.90;;;;;;5052133;28;20470;-63
2023/12/01 09:17:43;;;;;;;25.40;16.00;;;-2.20;99.90;;;;;;5049429;28;21026;-63
2023/12/01 09:20:12;;;;;;;26.40;15.37;;;-2.20;99.90;;;;;;5038510;28;20490;-64
2023/12/01 09:22:40;;;;;;;30.10;17.20;;;-2.10;99.90;;;;;;5050207;28;20474;-63
2023/12/01 09:25:09;;;;;;;24.40;15.47;;;-2.10;99.90;;;;;;5049253;28;20478;-63
2023/12/01 09:27:38;;;;;;;25.07;15.87;;;-2.10;99.90;;;;;;5047862;28;20537;-64
2023/12/01 09:30:09;;;;;;;26.23;15.63;;;-2.10;99.90;;;;;;5046650;28;20856;-64
2023/12/01 09:32:39;;;;;;;20.73;14.47;;;-2.10;99.90;;;;;;5054968;28;20504;-62
2023/12/01 09:35:08;;;;;;;22.70;14.47;;;-2.10;99.90;;;;;;5063046;28;20466;-62
2023/12/01 09:37:36;;;;;;;26.40;15.30;;;-2.00;99.90;;;;;;5056897;28;21042;-61
2023/12/01 09:40:06;;;;;;;24.70;15.03;;;-2.00;99.90;;;;;;5042382;28;20966;-64
2023/12/01 09:42:36;;;;;;;24.00;15.43;;;-2.00;99.90;;;;;;5047019;28;20463;-64
2023/12/01 09:45:05;;;;;;;24.53;15.50;;;-2.00;99.90;;;;;;5046422;28;20549;-63
2023/12/01 09:47:41;;;;;;;22.83;15.37;;;-2.00;99.90;;;;;;5046135;28;20498;-64
2023/12/01 09:50:13;;;;;;;22.17;14.67;;;-2.00;99.90;;;;;;5042687;28;20884;-63
2023/12/01 09:52:42;;;;;;;24.47;15.87;;;-2.00;99.90;;;;;;5042840;28;20640;-63
2023/12/01 09:55:11;;;;;;;23.63;13.63;;;-2.00;99.90;;;;;;5042033;28;20482;-64
2023/12/01 09:57:39;;;;;;;25.10;16.10;;;-2.00;99.90;;;;;;5040339;28;20492;-64
2023/12/01 10:00:11;;;;;;;25.30;16.57;;;-1.90;99.90;;;;;;5053709;28;20526;-64
2023/12/01 10:02:40;;;;;;;26.27;16.30;;;-1.90;99.90;;;;;;5038941;28;20542;-64
2023/12/01 10:05:11;;;;;;;25.20;15.70;;;-1.90;99.90;;;;;;5042481;28;20510;-64
2023/12/01 10:07:40;;;;;;;24.07;14.90;;;-1.90;99.90;;;;;;5048251;28;20489;-63
2023/12/01 10:10:19;;;;;;;28.90;17.97;;;-1.80;99.90;;;;;;5045595;28;20774;-63
2023/12/01 10:12:55;;;;;;;28.30;17.53;;;-1.70;99.90;;;;;;5038387;28;20504;-64
2023/12/01 10:15:24;;;;;;;27.70;17.27;;;-1.70;99.90;;;;;;5040589;28;20915;-63
2023/12/01 10:17:55;;;;;;;24.23;16.20;;;-1.60;99.90;;;;;;5047053;28;20490;-64
2023/12/01 10:20:23;;;;;;;20.27;13.87;;;-1.60;99.90;;;;;;5043403;28;20474;-64
2023/12/01 10:22:51;;;;;;;26.50;15.80;;;-1.60;99.90;;;;;;5041545;28;21032;-63
2023/12/01 10:25:19;;;;;;;22.17;14.53;;;-1.50;99.90;;;;;;5045569;28;20481;-64
2023/12/01 10:27:55;;;;;;;21.43;14.80;;;-1.40;99.90;;;;;;5039800;28;20589;-64
2023/12/01 10:30:23;;;;;;;25.80;14.90;;;-1.30;99.90;;;;;;5042613;28;20805;-63
2023/12/01 10:32:55;;;;;;;24.50;14.33;;;-1.30;99.90;;;;;;5043369;28;20494;-63
2023/12/01 10:35:24;;;;;;;24.53;14.80;;;-1.20;99.90;;;;;;5043286;28;20936;-63
2023/12/01 10:37:52;;;;;;;23.40;14.80;;;-1.20;99.90;;;;;;5042721;28;20498;-63
2023/12/01 10:40:20;;;;;;;23.47;15.30;;;-1.20;99.90;;;;;;5040725;28;20979;-63
2023/12/01 10:42:51;;;;;;;22.63;14.53;;;-1.10;99.90;;;;;;5044257;28;20744;-61
2023/12/01 10:45:20;;;;;;;19.53;13.10;;;-1.10;99.90;;;;;;5040722;28;20475;-64
2023/12/01 10:47:51;;;;;;;25.00;15.33;;;-1.00;99.90;;;;;;5042411;28;20489;-63
2023/12/01 10:50:22;;;;;;;21.50;14.40;;;-0.90;99.90;;;;;;5039818;28;20884;-64
2023/12/01 10:52:53;;;;;;;24.20;14.93;;;-0.90;99.90;;;;;;5046714;28;21002;-63
2023/12/01 10:55:21;;;;;;;24.33;16.27;;;-0.80;99.90;;;;;;5035907;28;21062;-64
2023/12/01 10:57:49;;;;;;;27.80;15.90;;;-0.80;99.90;;;;;;5044582;28;20564;-62
2023/12/01 11:00:29;;;;;;;22.47;15.70;;;-0.70;99.90;;;;;;5039832;28;20489;-64
2023/12/01 11:03:03;;;;;;;23.80;16.20;;;-0.70;99.90;;;;;;5044140;28;20479;-63
2023/12/01 11:05:34;;;;;;;22.23;14.77;;;-0.60;99.90;;;;;;5040656;28;20542;-63
2023/12/01 11:08:17;;;;;;;17.70;12.07;;;-0.60;99.90;;;;;;5036034;28;20494;-63
2023/12/01 11:10:57;;;;;;;16.33;10.57;;;-0.60;99.90;;;;;;5041170;28;20470;-63
2023/12/01 11:13:36;;;;;;;16.63;11.70;;;-0.50;99.90;;;;;;5041818;28;20518;-61
2023/12/01 11:16:08;;;;;;;16.23;10.90;;;-0.40;99.90;;;;;;5043830;28;20476;-63
2023/12/01 11:18:36;;;;;;;15.30;10.97;;;-0.40;99.90;;;;;;5039455;28;20530;-63
2023/12/01 11:21:06;;;;;;;16.50;11.00;;;-0.40;99.90;;;;;;5040276;28;20497;-63
2023/12/01 11:23:35;;;;;;;16.93;11.60;;;-0.40;99.90;;;;;;5037870;28;20976;-63
2023/12/01 11:26:07;;;;;;;17.80;10.90;;;-0.40;99.90;;;;;;5045681;28;20466;-64
2023/12/01 11:28:42;;;;;;;18.00;11.73;;;-0.30;99.90;;;;;;5043544;28;20594;-63
2023/12/01 11:31:17;;;;;;;21.73;11.57;;;-0.30;99.90;;;;;;5038355;28;20897;-63
2023/12/01 11:33:48;;;;;;;16.43;11.30;;;-0.20;99.90;;;;;;5038469;28;20474;-64
2023/12/01 11:36:26;;;;;;;15.97;10.43;;;-0.20;99.90;;;;;;5045350;28;20925;-63
2023/12/01 11:39:26;;;;;;;14.03;9.47;;;-0.20;99.90;;;;;;5039162;28;20917;-64
2023/12/01 11:42:16;;;;;;;16.60;10.97;;;-0.20;99.90;;;;;;5039358;28;20481;-62
2023/12/01 11:44:45;;;;;;;15.10;10.80;;;-0.20;99.90;;;;;;5043399;28;20481;-63
2023/12/01 11:47:14;;;;;;;18.83;11.67;;;-0.20;99.90;;;;;;5039722;28;20498;-63
2023/12/01 11:49:43;;;;;;;14.60;10.90;;;-0.20;99.90;;;;;;5043595;28;20474;-64
2023/12/01 11:52:18;;;;;;;17.53;11.97;;;-0.20;99.90;;;;;;5041631;28;20490;-64
2023/12/01 11:54:48;;;;;;;17.20;12.20;;;-0.20;99.90;;;;;;5045110;28;20485;-63
2023/12/01 11:57:17;;;;;;;18.00;11.90;;;-0.10;99.90;;;;;;5045709;28;20548;-64
2023/12/01 11:59:47;;;;;;;15.37;11.40;;;-0.10;99.90;;;;;;5035645;28;20495;-63
2023/12/01 12:02:15;;;;;;;16.60;11.83;;;0.00;99.90;;;;;;5044572;28;20470;-62
2023/12/01 12:04:46;;;;;;;17.33;11.30;;;0.00;99.90;;;;;;5046458;28;20470;-64
2023/12/01 12:07:16;;;;;;;16.77;10.67;;;0.10;99.90;;;;;;5042698;28;20494;-63
2023/12/01 12:09:45;;;;;;;15.83;10.70;;;0.10;99.90;;;;;;5041974;28;20466;-64
2023/12/01 12:12:14;;;;;;;15.80;11.47;;;0.20;99.90;;;;;;5049012;28;20987;-64
2023/12/01 12:14:46;;;;;;;16.47;10.60;;;0.30;99.90;;;;;;5044179;28;21142;-64
2023/12/01 12:17:15;;;;;;;18.10;11.90;;;0.30;99.90;;;;;;5046398;28;20584;-64
2023/12/01 12:19:44;;;;;;;17.57;11.13;;;0.30;99.90;;;;;;5044300;28;20903;-63
2023/12/01 12:22:21;;;;;;;13.97;10.63;;;0.30;99.90;;;;;;5041408;28;20468;-63
2023/12/01 12:24:50;;;;;;;16.50;11.10;;;0.30;99.90;;;;;;5044381;28;20478;-62
2023/12/01 12:27:19;;;;;;;12.50;9.20;;;0.30;99.90;;;;;;5038117;28;20502;-63
2023/12/01 12:29:49;;;;;;;14.90;9.70;;;0.30;99.90;;;;;;5037912;28;21039;-63
2023/12/01 12:32:17;;;;;;;15.90;10.20;;;0.30;99.90;;;;;;5041098;28;20560;-63
2023/12/01 12:34:45;;;;;;;14.40;9.80;;;0.30;99.90;;;;;;5036297;28;20498;-64
2023/12/01 12:37:14;;;;;;;13.07;9.47;;;0.30;99.90;;;;;;5038637;28;20578;-64
2023/12/01 12:39:45;;;;;;;13.33;9.40;;;0.30;99.90;;;;;;5043151;28;20568;-63